createdAt,value
2018-07-17T00:01:47.095Z,101933.14
2018-07-17T00:04:14.992Z,101926.75
2018-07-17T00:06:42.609Z,101934.25
2018-07-17T00:09:10.122Z,101929.21
2018-07-17T00:11:37.889Z,101936.23
2018-07-17T00:14:05.534Z,101931.55
2018-07-17T00:16:33.166Z,101935.03
2018-07-17T00:19:01.076Z,101944.25
2018-07-17T00:21:28.709Z,101942.30
2018-07-17T00:23:56.236Z,101941.67
2018-07-17T00:26:24.098Z,101943.28
2018-07-17T00:28:51.683Z,101944.52
2018-07-17T00:31:19.300Z,101944.86
2018-07-17T00:33:47.193Z,101942.91
2018-07-17T00:36:14.739Z,101948.70
2018-07-17T00:38:42.344Z,101944.88
2018-07-17T00:41:10.379Z,101947.32
2018-07-17T00:43:38.025Z,101949.44
2018-07-17T00:46:05.618Z,101950.16
2018-07-17T00:48:33.557Z,101951.87
2018-07-17T00:51:01.187Z,101957.89
2018-07-17T00:53:28.735Z,101952.84
2018-07-17T00:55:56.585Z,101949.14
2018-07-17T00:58:24.109Z,101949.47
2018-07-17T01:00:51.083Z,101948.00
2018-07-17T01:03:24.347Z,101947.37
2018-07-17T01:05:57.390Z,101943.19
2018-07-17T01:08:30.693Z,101947.97
2018-07-17T01:11:03.738Z,101946.48
2018-07-17T01:13:41.984Z,101949.05
2018-07-17T01:16:09.654Z,101949.88
2018-07-17T01:18:37.749Z,101948.05
2018-07-17T01:21:05.316Z,101949.12
2018-07-17T01:23:32.851Z,101952.06
2018-07-17T01:26:00.925Z,101954.64
2018-07-17T01:28:28.486Z,101948.59
2018-07-17T01:30:56.080Z,101949.81
2018-07-17T01:33:24.100Z,101953.35
2018-07-17T01:35:51.683Z,101955.05
2018-07-17T01:38:19.311Z,101958.98
2018-07-17T01:40:47.126Z,101952.45
2018-07-17T01:43:14.719Z,101956.74
2018-07-17T01:45:42.311Z,101964.09
2018-07-17T01:48:10.322Z,101962.10
2018-07-17T01:50:37.935Z,101964.56
2018-07-17T01:53:05.520Z,101971.55
2018-07-17T01:55:33.388Z,101968.56
2018-07-17T01:58:00.944Z,101972.34
2018-07-17T02:00:28.527Z,101968.51
2018-07-17T02:02:56.165Z,101972.80
2018-07-17T02:05:23.827Z,101984.31
2018-07-17T02:07:51.335Z,101976.83
2018-07-17T02:10:19.313Z,101982.83
2018-07-17T02:12:46.903Z,101982.94
2018-07-17T02:15:14.448Z,101981.22
2018-07-17T02:17:42.390Z,101979.59
2018-07-17T02:20:10.288Z,101981.92
2018-07-17T02:22:37.848Z,101981.05
2018-07-17T02:25:05.757Z,101980.20
2018-07-17T02:27:33.304Z,101983.98
2018-07-17T02:30:00.843Z,101980.91
2018-07-17T02:32:28.489Z,101984.72
2018-07-17T02:34:56.067Z,101979.78
2018-07-17T02:37:23.712Z,101986.18
2018-07-17T02:39:51.386Z,101986.18
2018-07-17T02:42:19.015Z,101980.02
2018-07-17T02:44:46.564Z,101976.91
2018-07-17T02:47:14.271Z,101977.89
2018-07-17T02:49:41.789Z,101979.14
2018-07-17T02:52:09.339Z,101971.14
2018-07-17T02:54:37.203Z,101983.30
2018-07-17T02:57:04.759Z,101977.78
2018-07-17T02:59:32.310Z,101979.53
2018-07-17T03:02:00.192Z,101974.12
2018-07-17T03:04:27.741Z,101974.97
2018-07-17T03:06:55.407Z,101978.55
2018-07-17T03:09:23.122Z,101982.85
2018-07-17T03:11:50.657Z,101972.80
2018-07-17T03:14:18.226Z,101974.52
2018-07-17T03:16:46.079Z,101972.58
2018-07-17T03:19:13.683Z,101971.48
2018-07-17T03:21:41.578Z,101972.23
2018-07-17T03:24:09.406Z,101977.53
2018-07-17T03:26:36.992Z,101980.13
2018-07-17T03:29:04.798Z,101969.95
2018-07-17T03:31:32.553Z,101974.62
2018-07-17T03:34:00.487Z,101973.55
2018-07-17T03:36:28.238Z,101974.16
2018-07-17T03:38:55.774Z,101972.11
2018-07-17T03:41:23.386Z,101980.53
2018-07-17T03:43:51.144Z,101980.30
2018-07-17T03:46:19.012Z,101980.67
2018-07-17T03:48:46.805Z,101978.09
2018-07-17T03:51:45.467Z,101984.16
2018-07-17T03:54:13.142Z,101981.09
2018-07-17T03:56:40.683Z,101987.16
2018-07-17T03:59:08.410Z,101986.92
2018-07-17T04:01:35.919Z,101984.70
2018-07-17T04:04:03.527Z,101979.21
2018-07-17T04:06:31.475Z,101988.34
2018-07-17T04:08:59.011Z,101989.81
2018-07-17T04:11:26.541Z,101990.34
2018-07-17T04:13:54.404Z,101989.59
2018-07-17T04:16:22.093Z,101988.88
2018-07-17T04:18:49.658Z,101985.82
2018-07-17T04:21:17.549Z,101985.83
2018-07-17T04:23:45.283Z,101983.76
2018-07-17T04:26:12.909Z,101987.86
2018-07-17T04:28:40.967Z,101984.28
2018-07-17T04:31:08.633Z,101983.44
2018-07-17T04:33:36.225Z,101983.47
2018-07-17T04:36:04.175Z,101974.51
2018-07-17T04:38:31.793Z,101979.95
2018-07-17T04:40:59.291Z,101975.89
2018-07-17T04:43:27.154Z,101979.95
2018-07-17T04:45:54.732Z,101978.11
2018-07-17T04:48:22.274Z,101977.26
2018-07-17T04:50:50.080Z,101978.13
2018-07-17T04:53:17.654Z,101975.80
2018-07-17T04:55:45.250Z,101978.38
2018-07-17T04:58:13.014Z,101977.03
2018-07-17T05:00:40.594Z,101976.90
2018-07-17T05:03:08.189Z,101976.76
2018-07-17T05:05:36.158Z,101983.78
2018-07-17T05:08:18.257Z,101978.64
2018-07-17T05:10:45.993Z,101986.89
2018-07-17T05:13:13.503Z,101982.42
2018-07-17T05:15:41.026Z,101978.11
2018-07-17T05:18:08.997Z,101975.59
2018-07-17T05:20:36.574Z,101981.25
2018-07-17T05:23:04.248Z,101991.20
2018-07-17T05:25:32.251Z,101986.48
2018-07-17T05:27:59.818Z,101990.42
2018-07-17T05:30:27.398Z,101984.73
2018-07-17T05:32:55.305Z,101993.58
2018-07-17T05:35:22.879Z,101986.00
2018-07-17T05:37:50.430Z,101990.29
2018-07-17T05:40:18.307Z,101995.41
2018-07-17T05:42:45.922Z,101992.06
2018-07-17T05:45:13.502Z,101984.09
2018-07-17T05:47:41.603Z,101993.93
2018-07-17T05:50:10.452Z,101995.98
2018-07-17T05:52:38.050Z,102003.84
2018-07-17T05:55:06.055Z,101996.89
2018-07-17T05:57:33.613Z,101997.22
2018-07-17T06:00:01.132Z,102003.34
2018-07-17T06:02:28.967Z,101996.73
2018-07-17T06:04:56.541Z,101997.54
2018-07-17T06:07:24.109Z,101991.02
2018-07-17T06:09:52.010Z,101989.50
2018-07-17T06:12:19.713Z,101986.22
2018-07-17T06:14:47.289Z,101991.98
2018-07-17T06:17:14.895Z,101988.70
2018-07-17T06:19:42.412Z,101987.62
2018-07-17T06:22:09.991Z,101988.45
2018-07-17T06:24:37.787Z,101989.77
2018-07-17T06:27:05.758Z,101994.52
2018-07-17T06:29:33.403Z,101992.58
2018-07-17T06:32:01.225Z,101997.46
2018-07-17T06:34:28.776Z,101992.66
2018-07-17T06:36:56.452Z,101993.45
2018-07-17T06:39:24.322Z,101998.19
2018-07-17T06:41:51.938Z,101995.77
2018-07-17T06:44:19.494Z,101994.69
2018-07-17T06:46:47.501Z,101990.52
2018-07-17T06:49:15.152Z,101985.39
2018-07-17T06:51:43.564Z,101990.61
2018-07-17T06:54:11.463Z,101989.19
2018-07-17T06:56:38.993Z,101991.19
2018-07-17T06:59:06.675Z,101993.81
2018-07-17T07:01:34.724Z,101987.13
2018-07-17T07:04:02.325Z,101984.31
2018-07-17T07:06:29.922Z,101985.61
2018-07-17T07:08:57.721Z,101979.03
2018-07-17T07:11:25.260Z,101979.45
2018-07-17T07:13:52.832Z,101983.82
2018-07-17T07:16:20.890Z,101976.59
2018-07-17T07:18:48.456Z,101977.34
2018-07-17T07:21:16.010Z,101976.75
2018-07-17T07:23:43.911Z,101980.39
2018-07-17T07:26:11.495Z,101970.73
2018-07-17T07:28:39.298Z,101973.87
2018-07-17T07:31:07.251Z,101977.36
2018-07-17T07:33:34.718Z,101975.38
2018-07-17T07:36:02.295Z,101976.13
2018-07-17T07:38:30.273Z,101970.44
2018-07-17T07:40:57.851Z,101976.65
2018-07-17T07:43:25.394Z,101973.19
2018-07-17T07:45:53.261Z,101979.23
2018-07-17T07:48:20.884Z,101983.05
2018-07-17T07:50:48.467Z,101967.41
2018-07-17T07:53:16.258Z,101974.48
2018-07-17T07:55:43.963Z,101979.32
2018-07-17T07:58:11.508Z,101973.61
2018-07-17T08:00:39.570Z,101969.53
2018-07-17T08:03:07.106Z,101977.44
2018-07-17T08:05:34.713Z,101968.27
2018-07-17T08:08:02.456Z,101967.30
2018-07-17T08:10:30.008Z,101973.53
2018-07-17T08:12:57.655Z,101950.69
2018-07-17T08:15:25.425Z,101974.81
2018-07-17T08:17:52.947Z,101971.06
2018-07-17T08:20:20.473Z,101973.69
2018-07-17T08:22:48.302Z,101964.14
2018-07-17T08:25:15.959Z,101972.20
2018-07-17T08:27:43.452Z,101974.82
2018-07-17T08:30:11.334Z,101974.17
2018-07-17T08:32:38.881Z,101975.39
2018-07-17T08:35:06.469Z,101968.94
2018-07-17T08:37:34.198Z,101967.42
2018-07-17T08:40:01.842Z,101966.83
2018-07-17T08:42:29.509Z,101967.55
2018-07-17T08:44:57.628Z,101960.39
2018-07-17T08:47:25.183Z,101962.47
2018-07-17T08:49:52.791Z,101967.28
2018-07-17T08:52:20.380Z,101965.75
2018-07-17T08:54:48.059Z,101973.67
2018-07-17T08:57:15.728Z,101962.06
2018-07-17T08:59:43.530Z,101963.63
2018-07-17T09:02:11.189Z,101959.69
2018-07-17T09:04:38.712Z,101962.33
2018-07-17T09:07:06.709Z,101963.36
2018-07-17T09:09:34.308Z,101961.48
2018-07-17T09:12:01.924Z,101960.15
2018-07-17T09:14:29.749Z,101956.90
2018-07-17T09:16:57.322Z,101959.64
2018-07-17T09:19:24.863Z,101958.80
2018-07-17T09:21:52.596Z,101953.31
2018-07-17T09:24:20.148Z,101955.71
2018-07-17T09:26:47.752Z,101950.25
2018-07-17T09:29:15.399Z,101953.86
2018-07-17T09:31:43.083Z,101948.36
2018-07-17T09:34:10.646Z,101946.81
2018-07-17T09:36:38.376Z,101946.30
2018-07-17T09:39:07.260Z,101948.92
2018-07-17T09:41:34.813Z,101946.86
2018-07-17T09:44:02.735Z,101946.84
2018-07-17T09:46:30.496Z,101948.23
2018-07-17T09:48:58.037Z,101944.27
2018-07-17T09:51:25.687Z,101940.32
2018-07-17T09:53:53.327Z,101945.45
2018-07-17T09:56:21.195Z,101938.39
2018-07-17T09:58:49.094Z,101938.55
2018-07-17T10:01:22.322Z,101871.02
2018-07-17T10:03:50.122Z,101939.41
2018-07-17T10:06:17.891Z,101933.67
2018-07-17T10:08:45.585Z,101937.99
2018-07-17T10:11:13.409Z,101935.13
2018-07-17T10:13:41.027Z,101932.73
2018-07-17T10:16:08.655Z,101937.38
2018-07-17T10:18:36.379Z,101933.09
2018-07-17T10:21:04.207Z,101930.64
2018-07-17T10:23:31.782Z,101938.36
2018-07-17T10:25:59.463Z,101926.30
2018-07-17T10:28:27.364Z,101927.16
2018-07-17T10:30:54.935Z,101918.85
2018-07-17T10:33:22.887Z,101920.21
2018-07-17T10:35:50.620Z,101921.76
2018-07-17T10:38:18.293Z,101918.14
2018-07-17T10:40:45.993Z,101925.78
2018-07-17T10:43:13.742Z,101922.51
2018-07-17T10:45:41.277Z,101919.39
2018-07-17T10:48:09.084Z,101917.88
2018-07-17T10:50:36.625Z,101918.85
2018-07-17T10:53:04.239Z,101921.24
2018-07-17T10:55:31.984Z,101916.85
2018-07-17T10:57:59.794Z,101920.39
2018-07-17T11:00:27.378Z,101917.74
2018-07-17T11:02:55.136Z,101920.10
2018-07-17T11:05:22.781Z,101916.22
2018-07-17T11:07:50.368Z,101922.31
2018-07-17T11:10:18.082Z,101918.64
2018-07-17T11:12:45.761Z,101912.36
2018-07-17T11:15:13.456Z,101917.16
2018-07-17T11:17:41.135Z,101913.69
2018-07-17T11:20:08.779Z,101912.97
2018-07-17T11:22:36.430Z,101909.48
2018-07-17T11:25:04.041Z,101911.33
2018-07-17T11:27:31.574Z,101911.64
2018-07-17T11:29:59.151Z,101910.26
2018-07-17T11:32:27.035Z,101917.51
2018-07-17T11:34:54.742Z,101908.47
2018-07-17T11:37:22.366Z,101911.89
2018-07-17T11:39:49.984Z,101908.41
2018-07-17T11:42:17.618Z,101903.86
2018-07-17T11:44:45.191Z,101905.14
2018-07-17T11:47:12.848Z,101904.94
2018-07-17T11:49:40.662Z,101908.22
2018-07-17T11:52:08.174Z,101902.38
2018-07-17T11:54:35.835Z,101899.41
2018-07-17T11:57:03.608Z,101899.66
2018-07-17T11:59:31.265Z,101897.98
2018-07-17T12:01:58.928Z,101898.44
2018-07-17T12:04:26.667Z,101896.75
2018-07-17T12:06:54.626Z,101896.68
2018-07-17T12:09:22.423Z,101895.20
2018-07-17T12:11:50.070Z,101889.29
2018-07-17T12:14:17.630Z,101895.38
2018-07-17T12:16:45.309Z,101888.05
2018-07-17T12:19:12.922Z,101891.13
2018-07-17T12:21:40.473Z,101887.32
2018-07-17T12:24:08.093Z,101891.13
2018-07-17T12:26:35.853Z,101888.15
2018-07-17T12:29:03.459Z,101890.39
2018-07-17T12:31:31.269Z,101885.73
2018-07-17T12:33:58.835Z,101884.14
2018-07-17T12:36:26.654Z,101875.09
2018-07-17T12:38:54.372Z,101879.78
2018-07-17T12:41:22.244Z,101878.06
2018-07-17T12:43:49.831Z,101881.69
2018-07-17T12:46:17.545Z,101879.99
2018-07-17T12:48:44.495Z,101873.08
2018-07-17T12:51:11.398Z,101879.06
2018-07-17T12:53:38.452Z,101875.43
2018-07-17T12:56:05.363Z,101876.05
2018-07-17T12:58:32.352Z,101874.47
2018-07-17T13:00:59.587Z,101876.05
2018-07-17T13:03:26.602Z,101870.39
2018-07-17T13:05:53.606Z,101867.42
2018-07-17T13:08:20.733Z,101867.49
2018-07-17T13:10:47.694Z,101867.83
2018-07-17T13:13:14.681Z,101866.45
2018-07-17T13:15:41.626Z,101868.94
2018-07-17T13:18:08.562Z,101867.73
2018-07-17T13:20:35.520Z,101866.87
2018-07-17T13:23:02.552Z,101860.98
2018-07-17T13:25:29.789Z,101867.86
2018-07-17T13:27:56.723Z,101862.84
2018-07-17T13:30:23.906Z,101864.78
2018-07-17T13:32:51.002Z,101863.84
2018-07-17T13:35:17.962Z,101867.81
2018-07-17T13:37:45.316Z,101867.45
2018-07-17T13:40:12.502Z,101868.15
2018-07-17T13:42:39.469Z,101859.70
2018-07-17T13:45:06.461Z,101863.66
2018-07-17T13:47:33.519Z,101854.72
2018-07-17T13:50:00.623Z,101855.56
2018-07-17T13:52:28.515Z,101859.31
2018-07-17T13:54:55.603Z,101853.09
2018-07-17T13:57:22.590Z,101849.76
2018-07-17T13:59:49.798Z,101851.92
2018-07-17T14:02:17.030Z,101848.58
2018-07-17T14:04:44.048Z,101853.13
2018-07-17T14:07:11.120Z,101854.97
2018-07-17T14:09:38.168Z,101849.05
2018-07-17T14:12:05.180Z,101847.08
2018-07-17T14:14:32.301Z,101844.05
2018-07-17T14:16:59.413Z,101845.50
2018-07-17T14:19:26.396Z,101838.45
2018-07-17T14:21:53.445Z,101838.02
2018-07-17T14:24:20.555Z,101840.30
2018-07-17T14:26:47.717Z,101845.12
2018-07-17T14:29:14.843Z,101844.02
2018-07-17T14:31:42.055Z,101846.77
2018-07-17T14:34:08.971Z,101845.66
2018-07-17T14:36:35.946Z,101840.41
2018-07-17T14:39:03.510Z,101850.27
2018-07-17T14:41:58.660Z,101847.45
2018-07-17T14:44:25.661Z,101847.48
2018-07-17T14:46:52.683Z,101834.77
2018-07-17T14:49:19.776Z,101844.73
2018-07-17T14:51:46.785Z,101841.47
2018-07-17T14:54:13.754Z,101830.96
2018-07-17T14:56:40.867Z,101834.23
2018-07-17T14:59:08.101Z,101828.09
2018-07-17T15:01:35.075Z,101828.09
2018-07-17T15:04:02.193Z,101824.14
2018-07-17T15:06:29.195Z,101812.46
2018-07-17T15:08:58.535Z,101798.89
2018-07-17T15:11:26.440Z,101813.17
2018-07-17T15:13:54.173Z,101811.69
2018-07-17T15:16:21.798Z,101814.98
2018-07-17T15:18:49.559Z,101810.86
2018-07-17T15:21:17.237Z,101810.47
2018-07-17T15:23:44.830Z,101818.85
2018-07-17T15:26:12.439Z,101813.66
2018-07-17T15:28:40.082Z,101810.00
2018-07-17T15:31:07.706Z,101804.96
2018-07-17T15:33:35.396Z,101810.72
2018-07-17T15:36:02.974Z,101803.23
2018-07-17T15:38:30.686Z,101811.78
2018-07-17T15:40:58.648Z,101810.87
2018-07-17T15:43:26.528Z,101806.66
2018-07-17T15:45:54.148Z,101809.22
2018-07-17T15:48:21.880Z,101810.35
2018-07-17T15:50:49.423Z,101810.42
2018-07-17T15:53:16.973Z,101805.29
2018-07-17T15:55:44.534Z,101807.40
2018-07-17T15:58:12.362Z,101803.64
2018-07-17T16:00:39.896Z,101806.12
2018-07-17T16:03:07.569Z,101806.89
2018-07-17T16:05:35.110Z,101802.05
2018-07-17T16:08:02.698Z,101808.73
2018-07-17T16:10:30.419Z,101803.73
2018-07-17T16:12:58.148Z,101798.77
2018-07-17T16:15:25.748Z,101800.46
2018-07-17T16:17:53.426Z,101799.95
2018-07-17T16:20:20.959Z,101795.34
2018-07-17T16:22:48.577Z,101795.08
2018-07-17T16:25:16.404Z,101791.75
2018-07-17T16:27:44.003Z,101792.55
2018-07-17T16:30:11.552Z,101793.90
2018-07-17T16:32:39.231Z,101793.83
2018-07-17T16:35:07.202Z,101793.25
2018-07-17T16:37:34.805Z,101794.84
2018-07-17T16:40:02.599Z,101791.69
2018-07-17T16:42:30.532Z,101783.90
2018-07-17T16:44:58.115Z,101788.83
2018-07-17T16:47:25.807Z,101778.52
2018-07-17T16:49:53.519Z,101787.64
2018-07-17T16:52:21.067Z,101785.28
2018-07-17T16:54:48.801Z,101760.72
2018-07-17T16:57:16.396Z,101780.20
2018-07-17T16:59:43.969Z,101791.61
2018-07-17T17:02:11.567Z,101781.18
2018-07-17T17:04:39.172Z,101781.92
2018-07-17T17:07:06.759Z,101785.07
2018-07-17T17:09:34.670Z,101789.27
2018-07-17T17:12:02.321Z,101787.61
2018-07-17T17:14:29.981Z,101787.13
2018-07-17T17:16:57.726Z,101789.45
2018-07-17T17:19:25.339Z,101784.84
2018-07-17T17:21:52.937Z,101783.69
2018-07-17T17:24:20.830Z,101787.88
2018-07-17T17:26:48.412Z,101785.70
2018-07-17T17:29:15.956Z,101788.84
2018-07-17T17:31:43.542Z,101790.60
2018-07-17T17:34:11.161Z,101795.63
2018-07-17T17:36:38.700Z,101795.17
2018-07-17T17:39:08.016Z,101795.87
2018-07-17T17:41:35.685Z,101789.05
2018-07-17T17:44:04.579Z,101792.19
2018-07-17T17:46:32.442Z,101796.02
2018-07-17T17:49:00.148Z,101797.32
2018-07-17T17:51:27.768Z,101806.52
2018-07-17T17:53:55.418Z,101803.11
2018-07-17T17:56:23.034Z,101801.47
2018-07-17T17:58:50.617Z,101808.91
2018-07-17T18:01:18.462Z,101803.99
2018-07-17T18:03:46.226Z,101803.20
2018-07-17T18:06:13.731Z,101806.70
2018-07-17T18:08:41.443Z,101806.98
2018-07-17T18:11:09.149Z,101810.66
2018-07-17T18:13:36.669Z,101809.53
2018-07-17T18:16:04.453Z,101803.59
2018-07-17T18:18:32.228Z,101803.28
2018-07-17T18:20:59.832Z,101806.28
2018-07-17T18:23:27.563Z,101805.97
2018-07-17T18:25:55.163Z,101803.66
2018-07-17T18:28:22.764Z,101808.50
2018-07-17T18:30:50.461Z,101807.34
2018-07-17T18:33:18.058Z,101805.31
2018-07-17T18:35:45.598Z,101815.98
2018-07-17T18:38:13.222Z,101820.13
2018-07-17T18:40:40.915Z,101814.16
2018-07-17T18:43:08.442Z,101815.54
2018-07-17T18:45:36.336Z,101813.17
2018-07-17T18:48:03.967Z,101815.58
2018-07-17T18:50:31.656Z,101813.38
2018-07-17T18:52:59.490Z,101815.59
2018-07-17T18:55:27.171Z,101821.95
2018-07-17T18:57:54.767Z,101819.03
2018-07-17T19:00:22.546Z,101816.62
2018-07-17T19:02:50.229Z,101814.57
2018-07-17T19:05:17.888Z,101818.17
2018-07-17T19:07:45.980Z,101822.81
2018-07-17T19:10:13.628Z,101815.63
2018-07-17T19:12:41.176Z,101816.44
2018-07-17T19:15:09.060Z,101813.02
2018-07-17T19:17:36.708Z,101820.17
2018-07-17T19:20:04.294Z,101819.82
2018-07-17T19:22:32.095Z,101818.43
2018-07-17T19:24:59.667Z,101825.45
2018-07-17T19:27:27.172Z,101822.34
2018-07-17T19:29:54.903Z,101831.92
2018-07-17T19:32:22.463Z,101833.26
2018-07-17T19:34:50.077Z,101826.55
2018-07-17T19:37:17.849Z,101830.78
2018-07-17T19:39:45.456Z,101826.51
2018-07-17T19:42:13.077Z,101824.94
2018-07-17T19:44:40.698Z,101833.97
2018-07-17T19:47:08.429Z,101837.36
2018-07-17T19:49:36.045Z,101840.75
2018-07-17T19:52:03.884Z,101835.40
2018-07-17T19:54:31.583Z,101834.52
2018-07-17T19:56:59.125Z,101833.80
2018-07-17T19:59:26.939Z,101840.45
2018-07-17T20:01:54.771Z,101842.77
2018-07-17T20:04:22.303Z,101839.32
2018-07-17T20:06:49.931Z,101842.70
2018-07-17T20:09:17.653Z,101850.34
2018-07-17T20:11:45.187Z,101851.86
2018-07-17T20:14:12.993Z,101832.93
2018-07-17T20:16:40.768Z,101850.20
2018-07-17T20:19:08.420Z,101844.55
2018-07-17T20:21:35.968Z,101843.28
2018-07-17T20:24:03.716Z,101843.27
2018-07-17T20:26:31.317Z,101842.88
2018-07-17T20:28:58.908Z,101847.44
2018-07-17T20:31:26.782Z,101845.34
2018-07-17T20:33:54.359Z,101849.88
2018-07-17T20:36:21.881Z,101841.28
2018-07-17T20:38:49.651Z,101846.23
2018-07-17T20:41:17.252Z,101847.53
2018-07-17T20:43:44.999Z,101850.39
2018-07-17T20:46:12.681Z,101848.47
2018-07-17T20:48:40.514Z,101848.91
2018-07-17T20:51:08.788Z,101844.59
2018-07-17T20:53:36.485Z,101842.85
2018-07-17T20:56:04.143Z,101843.66
2018-07-17T20:58:32.917Z,101849.23
2018-07-17T21:01:00.568Z,101845.95
2018-07-17T21:03:28.123Z,101847.77
2018-07-17T21:05:55.730Z,101843.77
2018-07-17T21:08:23.329Z,101844.56
2018-07-17T21:10:50.907Z,101849.12
2018-07-17T21:13:18.801Z,101848.20
2018-07-17T21:15:46.431Z,101845.94
2018-07-17T21:18:13.962Z,101854.58
2018-07-17T21:20:41.622Z,101851.09
2018-07-17T21:23:09.186Z,101854.08
2018-07-17T21:25:36.865Z,101854.05
2018-07-17T21:28:04.735Z,101854.00
2018-07-17T21:30:32.586Z,101851.20
2018-07-17T21:33:00.157Z,101864.29
2018-07-17T21:35:27.906Z,101860.13
2018-07-17T21:37:55.673Z,101863.15
2018-07-17T21:40:23.141Z,101859.51
2018-07-17T21:42:50.761Z,101855.38
2018-07-17T21:45:18.656Z,101858.89
2018-07-17T21:47:46.264Z,101864.29
2018-07-17T21:50:13.977Z,101860.09
2018-07-17T21:52:41.677Z,101869.08
2018-07-17T21:55:09.252Z,101867.30
2018-07-17T21:57:37.050Z,101872.31
2018-07-17T22:00:07.073Z,101869.69
2018-07-17T22:02:34.649Z,101871.48
2018-07-17T22:05:02.428Z,101873.43
2018-07-17T22:07:30.176Z,101874.70
2018-07-17T22:09:57.734Z,101876.36
2018-07-17T22:12:25.546Z,101877.31
2018-07-17T22:14:53.198Z,101877.75
2018-07-17T22:17:20.899Z,101875.46
2018-07-17T22:19:48.639Z,101879.45
2018-07-17T22:22:16.647Z,101877.50
2018-07-17T22:24:44.278Z,101880.66
2018-07-17T22:27:11.876Z,101881.81
2018-07-17T22:29:39.450Z,101877.30
2018-07-17T22:32:07.345Z,101884.49
2018-07-17T22:34:35.082Z,101889.14
2018-07-17T22:37:07.659Z,101888.70
2018-07-17T22:39:35.467Z,101888.28
2018-07-17T22:42:03.038Z,101887.83
2018-07-17T22:44:30.693Z,101894.19
2018-07-17T22:46:58.417Z,101900.05
2018-07-17T22:49:26.006Z,101894.33
2018-07-17T22:51:54.057Z,101891.02
2018-07-17T22:54:21.704Z,101889.34
2018-07-17T22:56:49.253Z,101866.62
2018-07-17T22:59:17.862Z,101887.32
2018-07-17T23:01:45.908Z,101887.25
2018-07-17T23:04:13.468Z,101896.17
2018-07-17T23:06:41.122Z,101893.52
2018-07-17T23:09:09.585Z,101893.03
2018-07-17T23:11:37.824Z,101891.34
2018-07-17T23:14:05.475Z,101886.80
2018-07-17T23:16:33.301Z,101884.88
2018-07-17T23:19:00.849Z,101885.64
2018-07-17T23:21:28.470Z,101885.18
2018-07-17T23:23:56.157Z,101879.80
2018-07-17T23:26:23.710Z,101883.28
2018-07-17T23:28:51.471Z,101886.41
2018-07-17T23:31:19.339Z,101882.87
2018-07-17T23:33:46.955Z,101879.55
2018-07-17T23:36:14.502Z,101883.05
2018-07-17T23:38:42.288Z,101883.46
2018-07-17T23:41:09.834Z,101887.80
2018-07-17T23:43:37.401Z,101885.48
2018-07-17T23:46:05.117Z,101885.75
2018-07-17T23:48:32.649Z,101888.70
2018-07-17T23:51:00.462Z,101884.89
2018-07-17T23:53:28.400Z,101887.26
2018-07-17T23:55:55.970Z,101880.22
2018-07-17T23:58:23.706Z,101883.91
